createdAt,value
2018-03-30T00:00:48.884Z,70.60
2018-03-30T00:03:16.971Z,70.50
2018-03-30T00:05:45.255Z,71.10
2018-03-30T00:08:12.799Z,71.10
2018-03-30T00:10:47.685Z,70.70
2018-03-30T00:13:15.213Z,70.70
2018-03-30T00:15:42.732Z,71.70
2018-03-30T00:18:10.259Z,72.30
2018-03-30T00:20:37.771Z,72.50
2018-03-30T00:23:06.048Z,72.80
2018-03-30T00:25:33.604Z,72.80
2018-03-30T00:28:01.880Z,71.90
2018-03-30T00:30:29.407Z,71.80
2018-03-30T00:32:56.923Z,71.10
2018-03-30T00:35:24.455Z,70.20
2018-03-30T00:37:51.969Z,70.30
2018-03-30T00:40:19.480Z,69.40
2018-03-30T00:42:46.994Z,69.60
2018-03-30T00:45:14.519Z,69.40
2018-03-30T00:47:42.784Z,70.00
2018-03-30T00:50:10.301Z,70.00
2018-03-30T00:52:37.872Z,70.00
2018-03-30T00:55:05.373Z,70.40
2018-03-30T00:57:32.899Z,70.30
2018-03-30T01:00:00.416Z,71.00
2018-03-30T01:02:27.969Z,70.90
2018-03-30T01:04:55.511Z,70.90
2018-03-30T01:07:23.023Z,72.10
2018-03-30T01:09:50.545Z,70.80
2018-03-30T01:12:18.060Z,71.50
2018-03-30T01:14:45.577Z,71.50
2018-03-30T01:17:13.099Z,72.30
2018-03-30T01:19:41.380Z,74.70
2018-03-30T01:22:09.652Z,76.20
2018-03-30T01:24:37.159Z,76.20
2018-03-30T01:27:04.675Z,74.80
2018-03-30T01:29:32.958Z,78.00
2018-03-30T01:32:00.464Z,77.90
2018-03-30T01:34:27.973Z,77.20
2018-03-30T01:36:56.248Z,80.10
2018-03-30T01:39:23.759Z,80.10
2018-03-30T01:41:51.271Z,80.10
2018-03-30T01:44:19.571Z,78.60
2018-03-30T01:46:47.088Z,78.60
2018-03-30T01:49:14.587Z,80.90
2018-03-30T01:51:42.868Z,79.20
2018-03-30T01:54:10.383Z,79.20
2018-03-30T01:56:37.904Z,80.50
2018-03-30T01:59:05.445Z,81.50
2018-03-30T02:01:33.863Z,81.60
2018-03-30T02:04:01.372Z,82.70
2018-03-30T02:06:28.884Z,83.30
2018-03-30T02:08:56.410Z,83.20
2018-03-30T02:11:24.698Z,84.50
2018-03-30T02:13:52.212Z,84.50
2018-03-30T02:16:19.725Z,84.30
2018-03-30T02:18:47.233Z,84.80
2018-03-30T02:21:14.763Z,85.10
2018-03-30T02:23:43.048Z,86.80
2018-03-30T02:26:10.560Z,86.50
2018-03-30T02:28:38.990Z,85.80
2018-03-30T02:31:06.490Z,86.50
2018-03-30T02:33:33.996Z,86.40
2018-03-30T02:36:01.519Z,87.30
2018-03-30T02:38:29.848Z,86.50
2018-03-30T02:40:57.376Z,86.50
2018-03-30T02:43:24.876Z,87.00
2018-03-30T02:45:52.402Z,87.40
2018-03-30T02:48:19.923Z,87.90
2018-03-30T02:50:47.440Z,88.70
2018-03-30T02:53:14.949Z,88.50
2018-03-30T02:55:43.225Z,88.90
2018-03-30T02:58:10.744Z,88.90
2018-03-30T03:00:38.281Z,88.80
2018-03-30T03:03:05.824Z,89.40
2018-03-30T03:05:33.364Z,89.60
2018-03-30T03:08:01.605Z,89.80
2018-03-30T03:10:29.192Z,90.20
2018-03-30T03:12:56.704Z,90.30
2018-03-30T03:15:24.230Z,90.10
2018-03-30T03:17:52.505Z,90.50
2018-03-30T03:20:20.030Z,90.40
2018-03-30T03:22:47.538Z,90.50
2018-03-30T03:25:15.116Z,90.60
2018-03-30T03:27:42.637Z,90.70
2018-03-30T03:30:10.178Z,90.60
2018-03-30T03:32:37.774Z,90.90
2018-03-30T03:35:06.113Z,91.10
2018-03-30T03:37:34.075Z,91.10
2018-03-30T03:40:01.647Z,91.20
2018-03-30T03:42:29.192Z,91.30
2018-03-30T03:44:56.702Z,91.30
2018-03-30T03:47:24.233Z,91.50
2018-03-30T03:49:51.735Z,91.40
2018-03-30T03:52:20.011Z,91.20
2018-03-30T03:54:47.528Z,91.20
2018-03-30T03:57:15.044Z,91.20
2018-03-30T03:59:42.591Z,91.30
2018-03-30T04:02:10.112Z,91.30
2018-03-30T04:04:37.615Z,91.20
2018-03-30T04:07:05.203Z,91.30
2018-03-30T04:09:32.735Z,91.30
2018-03-30T04:12:00.301Z,91.50
2018-03-30T04:14:27.815Z,91.60
2018-03-30T04:16:55.340Z,91.60
2018-03-30T04:19:22.913Z,91.70
2018-03-30T04:21:50.419Z,91.80
2018-03-30T04:24:18.744Z,91.80
2018-03-30T04:26:46.260Z,92.00
2018-03-30T04:29:14.542Z,91.80
2018-03-30T04:31:42.068Z,91.80
2018-03-30T04:34:10.378Z,92.00
2018-03-30T04:36:37.897Z,92.00
2018-03-30T04:39:05.408Z,92.00
2018-03-30T04:41:32.926Z,92.00
2018-03-30T04:44:00.444Z,92.10
2018-03-30T04:46:27.952Z,92.30
2018-03-30T04:48:55.478Z,92.30
2018-03-30T04:51:23.015Z,92.30
2018-03-30T04:53:50.526Z,92.20
2018-03-30T04:56:18.055Z,92.20
2018-03-30T04:58:45.570Z,92.20
2018-03-30T05:01:13.075Z,92.20
2018-03-30T05:03:40.668Z,92.10
2018-03-30T05:06:08.191Z,92.10
2018-03-30T05:08:35.719Z,92.10
2018-03-30T05:11:03.231Z,92.10
2018-03-30T05:13:30.747Z,92.10
2018-03-30T05:15:58.257Z,92.10
2018-03-30T05:18:25.778Z,92.20
2018-03-30T05:20:53.291Z,92.30
2018-03-30T05:23:20.809Z,92.40
2018-03-30T05:25:48.359Z,92.40
2018-03-30T05:28:15.869Z,92.50
2018-03-30T05:30:43.391Z,92.60
2018-03-30T05:33:10.896Z,92.60
2018-03-30T05:35:38.438Z,92.60
2018-03-30T05:38:05.968Z,92.60
2018-03-30T05:40:34.307Z,92.50
2018-03-30T05:43:01.824Z,92.50
2018-03-30T05:45:29.332Z,92.40
2018-03-30T05:47:57.611Z,92.30
2018-03-30T05:50:25.157Z,92.30
2018-03-30T05:52:52.743Z,92.40
2018-03-30T05:55:21.023Z,92.50
2018-03-30T05:57:48.551Z,92.50
2018-03-30T06:00:16.063Z,92.50
2018-03-30T06:02:43.635Z,92.40
2018-03-30T06:05:11.256Z,92.30
2018-03-30T06:07:38.763Z,92.40
2018-03-30T06:10:06.296Z,92.40
2018-03-30T06:12:34.415Z,92.30
2018-03-30T06:15:02.057Z,92.50
2018-03-30T06:17:29.571Z,92.10
2018-03-30T06:19:57.079Z,92.00
2018-03-30T06:22:24.583Z,91.60
2018-03-30T06:24:52.195Z,91.70
2018-03-30T06:27:19.717Z,91.60
2018-03-30T06:29:47.239Z,91.40
2018-03-30T06:32:14.747Z,91.30
2018-03-30T06:34:43.028Z,91.10
2018-03-30T06:37:10.671Z,91.10
2018-03-30T06:39:38.952Z,91.20
2018-03-30T06:42:07.232Z,90.70
2018-03-30T06:44:34.750Z,90.80
2018-03-30T06:47:02.313Z,90.00
2018-03-30T06:49:29.895Z,89.80
2018-03-30T06:51:57.407Z,90.00
2018-03-30T06:54:24.940Z,88.70
2018-03-30T06:56:53.280Z,89.40
2018-03-30T06:59:20.840Z,89.40
2018-03-30T07:01:48.353Z,85.70
2018-03-30T07:04:15.895Z,86.40
2018-03-30T07:06:43.421Z,84.30
2018-03-30T07:09:11.010Z,84.20
2018-03-30T07:11:38.508Z,82.70
2018-03-30T07:14:06.719Z,81.60
2018-03-30T07:16:35.577Z,80.50
2018-03-30T07:19:03.103Z,80.50
2018-03-30T07:21:30.621Z,81.00
2018-03-30T07:23:58.164Z,80.10
2018-03-30T07:26:25.679Z,81.50
2018-03-30T07:28:53.224Z,82.10
2018-03-30T07:31:20.748Z,82.30
2018-03-30T07:33:48.259Z,82.60
2018-03-30T07:36:16.539Z,82.70
2018-03-30T07:38:44.063Z,82.70
2018-03-30T07:41:11.575Z,82.60
2018-03-30T07:43:39.855Z,80.60
2018-03-30T07:46:07.359Z,80.60
2018-03-30T07:48:34.935Z,78.40
2018-03-30T07:51:02.441Z,78.50
2018-03-30T07:53:29.944Z,77.20
2018-03-30T07:55:57.471Z,76.20
2018-03-30T07:58:24.999Z,74.70
2018-03-30T08:00:53.272Z,76.00
2018-03-30T08:03:20.779Z,75.60
2018-03-30T08:05:48.293Z,75.00
2018-03-30T08:08:16.577Z,75.10
2018-03-30T08:10:44.187Z,75.00
2018-03-30T08:13:11.703Z,70.90
2018-03-30T08:15:40.039Z,68.10
2018-03-30T08:18:07.566Z,68.00
2018-03-30T08:20:35.105Z,68.90
2018-03-30T08:23:03.579Z,69.40
2018-03-30T08:25:31.864Z,69.70
2018-03-30T08:27:59.379Z,69.60
2018-03-30T08:30:26.895Z,66.90
2018-03-30T08:32:54.447Z,67.30
2018-03-30T08:35:22.796Z,66.40
2018-03-30T08:37:50.352Z,66.30
2018-03-30T08:40:17.874Z,66.10
2018-03-30T08:42:45.400Z,68.50
2018-03-30T08:45:13.708Z,66.50
2018-03-30T08:47:41.231Z,66.40
2018-03-30T08:50:08.744Z,68.60
2018-03-30T08:52:36.259Z,67.20
2018-03-30T08:55:03.802Z,66.30
2018-03-30T08:57:31.352Z,67.70
2018-03-30T08:59:58.883Z,65.00
2018-03-30T09:02:26.399Z,66.30
2018-03-30T09:04:53.939Z,67.10
2018-03-30T09:07:21.541Z,68.50
2018-03-30T09:09:49.079Z,67.30
2018-03-30T09:12:16.606Z,68.40
2018-03-30T09:14:44.249Z,67.10
2018-03-30T09:17:11.768Z,67.20
2018-03-30T09:19:39.304Z,67.20
2018-03-30T09:22:06.826Z,66.80
2018-03-30T09:24:34.347Z,67.00
2018-03-30T09:27:02.669Z,66.90
2018-03-30T09:29:30.179Z,66.80
2018-03-30T09:31:58.460Z,67.70
2018-03-30T09:34:25.987Z,67.70
2018-03-30T09:36:53.518Z,67.10
2018-03-30T09:39:21.052Z,66.20
2018-03-30T09:41:48.584Z,65.40
2018-03-30T09:44:16.099Z,63.70
2018-03-30T09:46:43.653Z,62.20
2018-03-30T09:49:11.164Z,61.60
2018-03-30T09:51:38.727Z,59.40
2018-03-30T09:54:06.259Z,60.40
2018-03-30T10:01:51.244Z,61.50
2018-03-30T10:04:23.779Z,61.70
2018-03-30T10:06:51.280Z,61.70
2018-03-30T10:09:18.824Z,61.80
2018-03-30T10:11:46.344Z,61.30
2018-03-30T10:14:14.463Z,62.60
2018-03-30T10:16:41.980Z,61.70
2018-03-30T10:19:09.483Z,60.50
2018-03-30T10:21:37.021Z,59.20
2018-03-30T10:24:04.579Z,59.90
2018-03-30T10:26:32.098Z,59.70
2018-03-30T10:28:59.606Z,59.20
2018-03-30T10:31:28.325Z,56.50
2018-03-30T10:33:55.936Z,56.40
2018-03-30T10:36:23.545Z,57.10
2018-03-30T10:38:51.082Z,56.50
2018-03-30T10:41:18.737Z,55.00
2018-03-30T10:43:47.095Z,52.60
2018-03-30T10:46:14.616Z,52.60
2018-03-30T10:48:42.178Z,51.90
2018-03-30T10:51:09.712Z,51.30
2018-03-30T10:53:37.232Z,54.30
2018-03-30T10:56:04.753Z,51.00
2018-03-30T10:58:32.263Z,50.80
2018-03-30T11:00:59.967Z,50.50
2018-03-30T11:03:27.507Z,49.10
2018-03-30T11:05:55.039Z,50.30
2018-03-30T11:11:53.141Z,49.10
2018-03-30T11:14:21.455Z,52.00
2018-03-30T11:16:49.144Z,52.10
2018-03-30T11:19:16.616Z,47.80
2018-03-30T11:21:44.179Z,49.10
2018-03-30T11:24:11.736Z,48.70
2018-03-30T11:26:39.291Z,46.50
2018-03-30T11:29:06.832Z,46.80
2018-03-30T11:31:35.264Z,46.00
2018-03-30T11:34:02.816Z,45.30
2018-03-30T11:36:30.360Z,46.50
2018-03-30T11:38:57.898Z,46.70
2018-03-30T11:41:25.438Z,47.30
2018-03-30T11:43:52.994Z,47.70
2018-03-30T11:46:20.529Z,47.30
2018-03-30T11:48:48.092Z,47.30
2018-03-30T11:51:15.740Z,47.80
2018-03-30T11:53:43.303Z,46.40
2018-03-30T11:56:10.889Z,46.60
2018-03-30T11:58:38.428Z,48.60
2018-03-30T12:01:06.766Z,46.70
2018-03-30T12:03:34.388Z,46.60
2018-03-30T12:06:02.727Z,44.60
2018-03-30T12:08:30.357Z,44.50
2018-03-30T12:10:57.991Z,44.40
2018-03-30T12:13:25.515Z,46.30
2018-03-30T12:15:53.064Z,45.30
2018-03-30T12:18:20.614Z,45.80
2018-03-30T12:20:48.174Z,46.80
2018-03-30T12:23:15.702Z,46.30
2018-03-30T12:25:43.263Z,46.00
2018-03-30T12:28:10.819Z,44.60
2018-03-30T12:30:38.356Z,46.00
2018-03-30T12:33:06.743Z,45.20
2018-03-30T12:35:34.342Z,45.60
2018-03-30T12:38:01.868Z,45.90
2018-03-30T12:40:29.428Z,46.50
2018-03-30T12:42:56.991Z,44.10
2018-03-30T12:45:24.593Z,45.50
2018-03-30T12:47:52.180Z,43.60
2018-03-30T12:50:19.716Z,44.20
2018-03-30T12:52:47.252Z,45.00
2018-03-30T12:55:14.810Z,45.40
2018-03-30T12:57:42.333Z,44.00
2018-03-30T13:00:09.890Z,44.00
2018-03-30T13:02:37.408Z,44.40
2018-03-30T13:05:04.972Z,43.80
2018-03-30T13:07:32.533Z,42.50
2018-03-30T13:10:00.068Z,40.60
2018-03-30T13:12:27.635Z,41.10
2018-03-30T13:14:55.275Z,41.00
2018-03-30T13:17:22.824Z,40.20
2018-03-30T13:19:50.375Z,40.80
2018-03-30T13:22:17.898Z,41.20
2018-03-30T13:24:45.422Z,40.80
2018-03-30T13:27:13.001Z,42.40
2018-03-30T13:29:40.527Z,41.90
2018-03-30T13:32:08.080Z,41.10
2018-03-30T13:34:35.762Z,40.70
2018-03-30T13:37:03.263Z,41.00
2018-03-30T13:39:30.787Z,41.60
2018-03-30T13:41:59.647Z,41.60
2018-03-30T13:44:27.204Z,40.20
2018-03-30T13:46:54.747Z,38.50
2018-03-30T13:49:22.263Z,38.90
2018-03-30T13:51:53.612Z,37.60
2018-03-30T13:54:25.675Z,37.30
2018-03-30T13:56:56.936Z,37.70
2018-03-30T13:59:26.943Z,37.80
2018-03-30T14:02:01.562Z,37.50
2018-03-30T14:04:41.033Z,37.40
2018-03-30T14:07:15.498Z,38.50
2018-03-30T14:09:43.087Z,39.70
2018-03-30T14:12:12.618Z,38.30
2018-03-30T14:14:40.166Z,39.10
2018-03-30T14:20:21.081Z,38.80
2018-03-30T14:23:03.240Z,38.90
2018-03-30T14:28:30.039Z,39.20
2018-03-30T14:31:06.919Z,40.10
2018-03-30T14:33:34.616Z,40.00
2018-03-30T14:36:08.855Z,40.60
2018-03-30T14:38:39.308Z,40.60
2018-03-30T14:41:07.676Z,40.00
2018-03-30T14:43:36.844Z,40.50
2018-03-30T14:46:05.742Z,40.40
2018-03-30T14:48:34.201Z,41.00
2018-03-30T14:51:09.678Z,40.40
2018-03-30T14:53:55.669Z,41.30
2018-03-30T14:56:27.868Z,41.40
2018-03-30T14:58:58.961Z,40.90
2018-03-30T15:01:33.463Z,40.80
2018-03-30T15:04:05.203Z,41.10
2018-03-30T15:07:04.256Z,41.00
2018-03-30T15:09:46.470Z,41.30
2018-03-30T15:12:32.731Z,42.30
2018-03-30T15:15:01.067Z,42.80
2018-03-30T15:17:32.522Z,42.60
2018-03-30T15:20:00.822Z,42.80
2018-03-30T15:22:44.658Z,43.80
2018-03-30T15:28:12.306Z,44.80
2018-03-30T15:30:46.610Z,44.10
2018-03-30T15:33:27.639Z,44.50
2018-03-30T15:35:55.422Z,44.30
2018-03-30T15:38:23.788Z,45.20
2018-03-30T15:40:51.307Z,45.10
2018-03-30T15:43:19.811Z,45.00
2018-03-30T15:45:49.227Z,45.20
2018-03-30T15:48:16.744Z,45.40
2018-03-30T15:50:44.858Z,46.00
2018-03-30T15:53:17.839Z,46.10
2018-03-30T15:55:46.251Z,46.40
2018-03-30T15:58:13.772Z,46.70
2018-03-30T16:00:41.417Z,47.10
2018-03-30T16:03:09.066Z,47.70
2018-03-30T16:05:36.752Z,47.90
2018-03-30T16:08:04.420Z,48.30
2018-03-30T16:10:35.779Z,48.60
2018-03-30T16:13:03.343Z,49.00
2018-03-30T16:15:30.884Z,49.40
2018-03-30T16:17:58.475Z,49.50
2018-03-30T16:20:25.622Z,49.80
2018-03-30T16:22:52.740Z,50.20
2018-03-30T16:25:19.777Z,50.00
2018-03-30T16:27:46.802Z,51.20
2018-03-30T16:30:15.548Z,50.70
2018-03-30T16:32:42.612Z,51.00
2018-03-30T16:35:09.711Z,51.50
2018-03-30T16:37:36.776Z,52.20
2018-03-30T16:40:04.182Z,52.30
2018-03-30T16:42:31.214Z,52.30
2018-03-30T16:44:58.256Z,52.00
2018-03-30T16:47:25.300Z,52.30
2018-03-30T16:49:52.328Z,52.30
2018-03-30T16:52:19.394Z,52.30
2018-03-30T16:54:46.571Z,52.00
2018-03-30T16:57:13.626Z,52.00
2018-03-30T16:59:41.152Z,52.20
2018-03-30T17:02:08.192Z,53.10
2018-03-30T17:04:35.229Z,53.00
2018-03-30T17:07:03.038Z,52.70
2018-03-30T17:09:30.088Z,52.60
2018-03-30T17:11:57.172Z,52.60
2018-03-30T17:14:24.792Z,52.30
2018-03-30T17:16:51.848Z,53.10
2018-03-30T17:19:19.349Z,52.70
2018-03-30T17:21:46.529Z,52.60
2018-03-30T17:24:13.596Z,53.10
2018-03-30T17:26:41.447Z,53.00
2018-03-30T17:29:08.511Z,53.20
2018-03-30T17:31:35.568Z,52.40
2018-03-30T17:34:02.620Z,52.60
2018-03-30T17:36:29.661Z,52.70
2018-03-30T17:38:56.698Z,53.00
2018-03-30T17:41:23.747Z,52.20
2018-03-30T17:43:50.788Z,52.00
2018-03-30T17:46:17.824Z,51.60
2018-03-30T17:48:44.957Z,52.00
2018-03-30T17:51:12.056Z,52.10
2018-03-30T17:53:39.090Z,52.60
2018-03-30T17:56:06.124Z,53.40
2018-03-30T17:58:33.167Z,54.50
2018-03-30T18:01:00.274Z,54.90
2018-03-30T18:03:27.356Z,55.50
2018-03-30T18:05:54.493Z,56.20
2018-03-30T18:08:21.549Z,57.40
2018-03-30T18:10:48.604Z,57.60
2018-03-30T18:13:16.398Z,58.40
2018-03-30T18:15:43.493Z,58.40
2018-03-30T18:18:10.536Z,59.20
2018-03-30T18:20:37.648Z,59.40
2018-03-30T18:23:04.696Z,59.40
2018-03-30T18:25:31.869Z,59.90
2018-03-30T18:27:59.257Z,60.10
2018-03-30T18:30:27.110Z,62.80
2018-03-30T18:32:54.162Z,62.80
2018-03-30T18:35:21.209Z,64.30
2018-03-30T18:37:48.249Z,65.70
2018-03-30T18:40:15.288Z,66.60
2018-03-30T18:42:42.341Z,69.30
2018-03-30T18:45:09.396Z,71.10
2018-03-30T18:47:36.435Z,73.70
2018-03-30T18:50:03.461Z,76.30
2018-03-30T18:52:30.480Z,79.10
2018-03-30T18:54:58.283Z,82.80
2018-03-30T18:57:25.396Z,82.70
2018-03-30T18:59:52.474Z,83.80
2018-03-30T19:02:19.582Z,86.00
2018-03-30T19:04:46.638Z,86.70
2018-03-30T19:07:13.671Z,87.50
2018-03-30T19:09:40.744Z,87.30
2018-03-30T19:12:07.872Z,87.90
2018-03-30T19:14:35.093Z,88.50
2018-03-30T19:17:02.433Z,88.80
2018-03-30T19:19:29.458Z,90.00
2018-03-30T19:21:56.652Z,90.20
2018-03-30T19:24:24.852Z,90.70
2018-03-30T19:26:51.871Z,90.10
2018-03-30T19:29:18.913Z,90.60
2018-03-30T19:31:45.989Z,90.20
2018-03-30T19:34:13.029Z,91.00
2018-03-30T19:36:40.096Z,91.60
2018-03-30T19:39:07.144Z,91.60
2018-03-30T19:41:34.188Z,91.80
2018-03-30T19:44:01.228Z,92.10
2018-03-30T19:46:28.284Z,92.20
2018-03-30T19:48:55.307Z,92.00
2018-03-30T19:51:22.437Z,91.80
2018-03-30T19:53:49.469Z,92.60
2018-03-30T19:56:16.524Z,92.50
2018-03-30T19:58:43.553Z,92.00
2018-03-30T20:01:10.684Z,92.60
2018-03-30T20:03:37.768Z,92.80
2018-03-30T20:06:04.805Z,92.30
2018-03-30T20:08:31.839Z,92.60
2018-03-30T20:10:58.907Z,91.60
2018-03-30T20:13:25.952Z,91.90
2018-03-30T20:15:53.080Z,92.00
2018-03-30T20:18:20.147Z,92.40
2018-03-30T20:20:48.012Z,92.60
2018-03-30T20:23:15.038Z,92.60
2018-03-30T20:25:42.070Z,92.10
2018-03-30T20:28:09.181Z,91.60
2018-03-30T20:30:36.982Z,92.20
2018-03-30T20:33:04.007Z,92.10
2018-03-30T20:35:31.047Z,91.80
2018-03-30T20:37:58.100Z,91.10
2018-03-30T20:40:25.142Z,90.50
2018-03-30T20:42:52.997Z,91.10
2018-03-30T20:45:20.812Z,90.80
2018-03-30T20:47:47.857Z,90.80
2018-03-30T20:50:14.879Z,91.20
2018-03-30T20:52:41.911Z,90.80
2018-03-30T20:55:09.710Z,90.70
2018-03-30T20:57:36.775Z,90.70
2018-03-30T21:00:03.819Z,91.00
2018-03-30T21:02:30.908Z,91.20
2018-03-30T21:04:57.933Z,91.40
2018-03-30T21:07:24.961Z,91.50
2018-03-30T21:09:51.980Z,91.50
2018-03-30T21:12:19.476Z,91.80
2018-03-30T21:14:46.554Z,91.80
2018-03-30T21:17:13.596Z,91.90
2018-03-30T21:19:40.618Z,91.60
2018-03-30T21:22:07.636Z,91.30
2018-03-30T21:24:35.452Z,91.20
2018-03-30T21:27:02.482Z,91.20
2018-03-30T21:29:29.522Z,91.20
2018-03-30T21:31:56.571Z,91.50
2018-03-30T21:34:23.638Z,91.80
2018-03-30T21:36:50.654Z,91.80
2018-03-30T21:39:18.549Z,91.50
2018-03-30T21:41:45.530Z,91.40
2018-03-30T21:44:12.558Z,91.50
2018-03-30T21:46:39.589Z,91.70
2018-03-30T21:49:06.620Z,91.50
2018-03-30T21:51:34.415Z,91.60
2018-03-30T21:54:01.461Z,91.60
2018-03-30T21:56:28.499Z,91.90
2018-03-30T21:58:55.520Z,92.20
2018-03-30T22:01:23.360Z,92.00
2018-03-30T22:03:50.414Z,92.00
2018-03-30T22:06:17.456Z,92.00
2018-03-30T22:08:44.491Z,92.10
2018-03-30T22:11:11.519Z,92.30
2018-03-30T22:13:38.539Z,92.20
2018-03-30T22:16:05.595Z,92.40
2018-03-30T22:18:32.666Z,92.40
2018-03-30T22:20:59.953Z,92.40
2018-03-30T22:23:26.995Z,92.50
2018-03-30T22:25:54.015Z,92.50
2018-03-30T22:28:21.058Z,92.50
2018-03-30T22:30:48.088Z,92.60
2018-03-30T22:33:15.182Z,92.70
2018-03-30T22:35:42.202Z,92.60
2018-03-30T22:38:09.232Z,92.60
2018-03-30T22:40:36.273Z,92.80
2018-03-30T22:43:03.354Z,93.00
2018-03-30T22:45:31.024Z,92.90
2018-03-30T22:47:58.078Z,93.00
2018-03-30T22:50:25.099Z,93.00
2018-03-30T22:52:52.881Z,93.20
2018-03-30T22:55:19.913Z,93.20
2018-03-30T22:57:47.050Z,93.20
2018-03-30T23:00:14.110Z,93.40
2018-03-30T23:02:41.149Z,93.40
2018-03-30T23:05:08.215Z,93.50
2018-03-30T23:07:35.305Z,93.60
2018-03-30T23:10:03.852Z,94.00
2018-03-30T23:12:30.938Z,93.70
2018-03-30T23:14:57.986Z,93.60
2018-03-30T23:17:25.269Z,93.60
2018-03-30T23:19:52.304Z,93.60
2018-03-30T23:22:19.349Z,93.60
2018-03-30T23:24:46.419Z,93.70
2018-03-30T23:27:13.467Z,93.60
2018-03-30T23:29:41.323Z,93.20
2018-03-30T23:32:08.355Z,93.20
2018-03-30T23:34:35.384Z,93.50
2018-03-30T23:37:02.401Z,93.60
2018-03-30T23:39:29.470Z,93.50
2018-03-30T23:41:56.490Z,93.50
2018-03-30T23:44:24.348Z,93.60
2018-03-30T23:46:51.376Z,93.60
2018-03-30T23:49:19.324Z,93.70
2018-03-30T23:51:46.350Z,93.70
2018-03-30T23:54:13.396Z,93.60
2018-03-30T23:56:40.420Z,93.50
2018-03-30T23:59:07.444Z,93.30
